sensor_id;sensor_type;location;lat;lon;timestamp;pressure;altitude;pressure_sealevel;temperature;humidity
77469;BME280;68840;50.272;12.818;2023-05-19T00:00:06;96745;;;10.5;52.6
77469;BME280;68840;50.272;12.818;2023-05-19T00:02:08;96745;;;10.5;52.7
77469;BME280;68840;50.272;12.818;2023-05-19T00:04:05;96744;;;10.5;53.0
77469;BME280;68840;50.272;12.818;2023-05-19T00:06:07;96742;;;10.4;53.0
77469;BME280;68840;50.272;12.818;2023-05-19T00:08:06;96740;;;10.4;53.2
77469;BME280;68840;50.272;12.818;2023-05-19T00:10:06;96740;;;10.4;52.9
77469;BME280;68840;50.272;12.818;2023-05-19T00:12:05;96738;;;10.4;52.9
77469;BME280;68840;50.272;12.818;2023-05-19T00:14:07;96736;;;10.4;53.1
77469;BME280;68840;50.272;12.818;2023-05-19T00:16:06;96734;;;10.3;52.5
77469;BME280;68840;50.272;12.818;2023-05-19T00:18:07;96731;;;10.3;52.9
77469;BME280;68840;50.272;12.818;2023-05-19T00:20:06;96730;;;10.3;53.0
77469;BME280;68840;50.272;12.818;2023-05-19T00:22:05;96729;;;10.3;52.9
77469;BME280;68840;50.272;12.818;2023-05-19T00:24:06;96729;;;10.2;52.9
77469;BME280;68840;50.272;12.818;2023-05-19T00:26:05;96729;;;10.2;52.9
77469;BME280;68840;50.272;12.818;2023-05-19T00:28:05;96731;;;10.2;53.0
77469;BME280;68840;50.272;12.818;2023-05-19T00:30:06;96729;;;10.2;53.2
77469;BME280;68840;50.272;12.818;2023-05-19T00:32:05;96726;;;10.2;53.3
77469;BME280;68840;50.272;12.818;2023-05-19T00:34:05;96723;;;10.2;53.0
77469;BME280;68840;50.272;12.818;2023-05-19T00:36:06;96722;;;10.2;53.2
77469;BME280;68840;50.272;12.818;2023-05-19T00:38:05;96722;;;10.2;53.3
77469;BME280;68840;50.272;12.818;2023-05-19T00:40:06;96724;;;10.2;53.2
77469;BME280;68840;50.272;12.818;2023-05-19T00:42:05;96724;;;10.2;53.0
77469;BME280;68840;50.272;12.818;2023-05-19T00:44:05;96722;;;10.2;52.5
77469;BME280;68840;50.272;12.818;2023-05-19T00:46:06;96720;;;10.2;53.2
77469;BME280;68840;50.272;12.818;2023-05-19T00:48:05;96717;;;10.2;53.3
77469;BME280;68840;50.272;12.818;2023-05-19T00:50:05;96713;;;10.2;53.0
77469;BME280;68840;50.272;12.818;2023-05-19T00:52:06;96709;;;10.2;52.9
77469;BME280;68840;50.272;12.818;2023-05-19T00:54:05;96705;;;10.2;52.5
77469;BME280;68840;50.272;12.818;2023-05-19T00:56:06;96703;;;10.1;52.8
77469;BME280;68840;50.272;12.818;2023-05-19T00:58:06;96701;;;10.1;53.0
77469;BME280;68840;50.272;12.818;2023-05-19T01:00:06;96701;;;10.1;52.5
77469;BME280;68840;50.272;12.818;2023-05-19T01:02:05;96701;;;10.1;53.5
77469;BME280;68840;50.272;12.818;2023-05-19T01:04:08;96703;;;10.1;52.9
77469;BME280;68840;50.272;12.818;2023-05-19T01:06:06;96704;;;10.1;53.3
77469;BME280;68840;50.272;12.818;2023-05-19T01:08:05;96703;;;10.1;53.0
77469;BME280;68840;50.272;12.818;2023-05-19T01:10:06;96704;;;10.1;53.0
77469;BME280;68840;50.272;12.818;2023-05-19T01:12:06;96702;;;10.1;53.2
77469;BME280;68840;50.272;12.818;2023-05-19T01:14:05;96704;;;10.1;53.4
77469;BME280;68840;50.272;12.818;2023-05-19T01:16:13;96699;;;10.1;53.5
77469;BME280;68840;50.272;12.818;2023-05-19T01:18:10;96700;;;10.1;53.3
77469;BME280;68840;50.272;12.818;2023-05-19T01:20:13;96700;;;10.1;53.7
77469;BME280;68840;50.272;12.818;2023-05-19T01:22:13;96701;;;10.1;53.6
77469;BME280;68840;50.272;12.818;2023-05-19T01:24:15;96701;;;10.1;53.1
77469;BME280;68840;50.272;12.818;2023-05-19T01:26:18;96698;;;10.1;53.4
77469;BME280;68840;50.272;12.818;2023-05-19T01:28:21;96698;;;10.1;53.2
77469;BME280;68840;50.272;12.818;2023-05-19T01:30:19;96696;;;10.1;52.7
77469;BME280;68840;50.272;12.818;2023-05-19T01:32:06;96695;;;10.1;52.7
77469;BME280;68840;50.272;12.818;2023-05-19T01:34:05;96694;;;10.0;53.1
77469;BME280;68840;50.272;12.818;2023-05-19T01:36:07;96695;;;10.0;52.6
77469;BME280;68840;50.272;12.818;2023-05-19T01:38:08;96695;;;10.0;52.8
77469;BME280;68840;50.272;12.818;2023-05-19T01:40:07;96697;;;10.0;53.0
77469;BME280;68840;50.272;12.818;2023-05-19T01:42:05;96698;;;10.0;52.9
77469;BME280;68840;50.272;12.818;2023-05-19T01:44:06;96700;;;10.0;53.1
77469;BME280;68840;50.272;12.818;2023-05-19T01:46:05;96699;;;10.0;53.0
77469;BME280;68840;50.272;12.818;2023-05-19T01:48:06;96697;;;9.9;53.0
77469;BME280;68840;50.272;12.818;2023-05-19T01:50:06;96695;;;9.9;52.8
77469;BME280;68840;50.272;12.818;2023-05-19T01:52:06;96695;;;9.9;52.7
77469;BME280;68840;50.272;12.818;2023-05-19T01:54:05;96694;;;9.9;52.7
77469;BME280;68840;50.272;12.818;2023-05-19T01:56:06;96692;;;9.9;52.9
77469;BME280;68840;50.272;12.818;2023-05-19T01:58:11;96691;;;9.8;52.7
77469;BME280;68840;50.272;12.818;2023-05-19T02:00:12;96689;;;9.8;52.6
77469;BME280;68840;50.272;12.818;2023-05-19T02:02:14;96686;;;9.8;52.7
77469;BME280;68840;50.272;12.818;2023-05-19T02:04:15;96683;;;9.8;52.7
77469;BME280;68840;50.272;12.818;2023-05-19T02:06:18;96682;;;9.7;52.6
77469;BME280;68840;50.272;12.818;2023-05-19T02:08:12;96681;;;9.7;52.9
77469;BME280;68840;50.272;12.818;2023-05-19T02:10:10;96678;;;9.7;53.0
77469;BME280;68840;50.272;12.818;2023-05-19T02:12:10;96675;;;9.6;53.2
77469;BME280;68840;50.272;12.818;2023-05-19T02:14:10;96676;;;9.6;53.3
77469;BME280;68840;50.272;12.818;2023-05-19T02:16:06;96673;;;9.6;53.7
77469;BME280;68840;50.272;12.818;2023-05-19T02:18:08;96673;;;9.6;53.8
77469;BME280;68840;50.272;12.818;2023-05-19T02:20:08;96672;;;9.6;53.7
77469;BME280;68840;50.272;12.818;2023-05-19T02:22:05;96670;;;9.6;54.1
77469;BME280;68840;50.272;12.818;2023-05-19T02:24:05;96669;;;9.6;53.9
77469;BME280;68840;50.272;12.818;2023-05-19T02:26:07;96668;;;9.6;53.7
77469;BME280;68840;50.272;12.818;2023-05-19T02:28:05;96665;;;9.6;54.1
77469;BME280;68840;50.272;12.818;2023-05-19T02:30:07;96664;;;9.6;53.6
77469;BME280;68840;50.272;12.818;2023-05-19T02:32:05;96663;;;9.6;53.8
77469;BME280;68840;50.272;12.818;2023-05-19T02:34:05;96663;;;9.6;53.5
77469;BME280;68840;50.272;12.818;2023-05-19T02:36:05;96661;;;9.6;53.6
77469;BME280;68840;50.272;12.818;2023-05-19T02:38:05;96661;;;9.6;53.8
77469;BME280;68840;50.272;12.818;2023-05-19T02:40:06;96660;;;9.5;53.7
77469;BME280;68840;50.272;12.818;2023-05-19T02:42:05;96659;;;9.5;53.9
77469;BME280;68840;50.272;12.818;2023-05-19T02:44:05;96657;;;9.5;53.4
77469;BME280;68840;50.272;12.818;2023-05-19T02:46:05;96658;;;9.5;53.4
77469;BME280;68840;50.272;12.818;2023-05-19T02:48:05;96658;;;9.5;53.5
77469;BME280;68840;50.272;12.818;2023-05-19T02:50:06;96659;;;9.5;53.8
77469;BME280;68840;50.272;12.818;2023-05-19T02:52:06;96661;;;9.5;53.5
77469;BME280;68840;50.272;12.818;2023-05-19T02:54:05;96662;;;9.5;54.0
77469;BME280;68840;50.272;12.818;2023-05-19T02:56:05;96661;;;9.5;54.0
77469;BME280;68840;50.272;12.818;2023-05-19T02:58:05;96659;;;9.5;54.2
77469;BME280;68840;50.272;12.818;2023-05-19T03:00:07;96656;;;9.5;54.2
77469;BME280;68840;50.272;12.818;2023-05-19T03:02:05;96656;;;9.5;54.1
77469;BME280;68840;50.272;12.818;2023-05-19T03:04:05;96655;;;9.5;53.6
77469;BME280;68840;50.272;12.818;2023-05-19T03:06:07;96655;;;9.5;54.0
77469;BME280;68840;50.272;12.818;2023-05-19T03:08:05;96654;;;9.5;54.0
77469;BME280;68840;50.272;12.818;2023-05-19T03:10:07;96655;;;9.5;54.2
77469;BME280;68840;50.272;12.818;2023-05-19T03:12:06;96654;;;9.5;53.9
77469;BME280;68840;50.272;12.818;2023-05-19T03:14:05;96655;;;9.5;54.1
77469;BME280;68840;50.272;12.818;2023-05-19T03:16:06;96654;;;9.4;53.9
77469;BME280;68840;50.272;12.818;2023-05-19T03:18:05;96656;;;9.4;54.2
77469;BME280;68840;50.272;12.818;2023-05-19T03:20:06;96661;;;9.4;54.6
77469;BME280;68840;50.272;12.818;2023-05-19T03:22:05;96665;;;9.4;54.4
77469;BME280;68840;50.272;12.818;2023-05-19T03:24:05;96668;;;9.4;54.5
77469;BME280;68840;50.272;12.818;2023-05-19T03:26:05;96666;;;9.4;54.8
77469;BME280;68840;50.272;12.818;2023-05-19T03:28:05;96667;;;9.4;55.2
77469;BME280;68840;50.272;12.818;2023-05-19T03:30:06;96665;;;9.4;55.0
77469;BME280;68840;50.272;12.818;2023-05-19T03:32:05;96663;;;9.4;55.2
77469;BME280;68840;50.272;12.818;2023-05-19T03:34:05;96665;;;9.4;55.1
77469;BME280;68840;50.272;12.818;2023-05-19T03:36:06;96666;;;9.4;55.2
77469;BME280;68840;50.272;12.818;2023-05-19T03:38:05;96667;;;9.3;55.8
77469;BME280;68840;50.272;12.818;2023-05-19T03:40:06;96666;;;9.3;55.6
77469;BME280;68840;50.272;12.818;2023-05-19T03:42:05;96667;;;9.3;55.6
77469;BME280;68840;50.272;12.818;2023-05-19T03:44:05;96667;;;9.4;55.7
77469;BME280;68840;50.272;12.818;2023-05-19T03:46:05;96670;;;9.4;55.6
77469;BME280;68840;50.272;12.818;2023-05-19T03:48:05;96671;;;9.4;55.6
77469;BME280;68840;50.272;12.818;2023-05-19T03:50:06;96673;;;9.4;55.2
77469;BME280;68840;50.272;12.818;2023-05-19T03:52:05;96675;;;9.4;55.5
77469;BME280;68840;50.272;12.818;2023-05-19T03:54:05;96677;;;9.4;55.1
77469;BME280;68840;50.272;12.818;2023-05-19T03:56:06;96677;;;9.5;55.2
77469;BME280;68840;50.272;12.818;2023-05-19T03:58:05;96681;;;9.5;54.8
77469;BME280;68840;50.272;12.818;2023-05-19T04:00:06;96684;;;9.5;55.2
77469;BME280;68840;50.272;12.818;2023-05-19T04:02:05;96687;;;9.6;55.7
77469;BME280;68840;50.272;12.818;2023-05-19T04:04:05;96683;;;9.6;55.6
77469;BME280;68840;50.272;12.818;2023-05-19T04:06:06;96684;;;9.6;55.7
77469;BME280;68840;50.272;12.818;2023-05-19T04:08:05;96686;;;9.7;55.2
77469;BME280;68840;50.272;12.818;2023-05-19T04:10:06;96684;;;9.7;55.5
77469;BME280;68840;50.272;12.818;2023-05-19T04:12:05;96686;;;9.7;55.6
77469;BME280;68840;50.272;12.818;2023-05-19T04:14:05;96684;;;9.8;55.2
77469;BME280;68840;50.272;12.818;2023-05-19T04:16:06;96683;;;9.8;55.3
77469;BME280;68840;50.272;12.818;2023-05-19T04:18:05;96683;;;9.8;55.2
77469;BME280;68840;50.272;12.818;2023-05-19T04:20:06;96685;;;9.8;55.1
77469;BME280;68840;50.272;12.818;2023-05-19T04:22:05;96687;;;9.9;55.1
77469;BME280;68840;50.272;12.818;2023-05-19T04:24:05;96685;;;9.9;55.1
77469;BME280;68840;50.272;12.818;2023-05-19T04:26:05;96682;;;9.9;55.4
77469;BME280;68840;50.272;12.818;2023-05-19T04:28:06;96680;;;9.9;55.0
77469;BME280;68840;50.272;12.818;2023-05-19T04:30:06;96678;;;9.9;55.9
77469;BME280;68840;50.272;12.818;2023-05-19T04:32:06;96676;;;9.9;55.3
77469;BME280;68840;50.272;12.818;2023-05-19T04:34:06;96676;;;9.9;55.0
77469;BME280;68840;50.272;12.818;2023-05-19T04:36:07;96678;;;9.9;55.1
77469;BME280;68840;50.272;12.818;2023-05-19T04:38:05;96679;;;9.9;55.2
77469;BME280;68840;50.272;12.818;2023-05-19T04:40:09;96680;;;10.0;55.3
77469;BME280;68840;50.272;12.818;2023-05-19T04:42:05;96680;;;10.0;55.7
77469;BME280;68840;50.272;12.818;2023-05-19T04:44:06;96680;;;10.0;55.8
77469;BME280;68840;50.272;12.818;2023-05-19T04:46:05;96679;;;10.0;55.1
77469;BME280;68840;50.272;12.818;2023-05-19T04:48:05;96680;;;10.1;55.2
77469;BME280;68840;50.272;12.818;2023-05-19T04:50:06;96680;;;10.1;54.8
77469;BME280;68840;50.272;12.818;2023-05-19T04:52:06;96679;;;10.1;55.2
77469;BME280;68840;50.272;12.818;2023-05-19T04:54:05;96679;;;10.1;54.9
77469;BME280;68840;50.272;12.818;2023-05-19T04:56:06;96680;;;10.2;54.5
77469;BME280;68840;50.272;12.818;2023-05-19T04:58:05;96680;;;10.2;55.1
77469;BME280;68840;50.272;12.818;2023-05-19T05:00:08;96679;;;10.2;54.2
77469;BME280;68840;50.272;12.818;2023-05-19T05:02:05;96677;;;10.2;54.5
77469;BME280;68840;50.272;12.818;2023-05-19T05:04:05;96679;;;10.3;54.7
77469;BME280;68840;50.272;12.818;2023-05-19T05:06:05;96678;;;10.3;54.7
77469;BME280;68840;50.272;12.818;2023-05-19T05:08:06;96675;;;10.4;54.9
77469;BME280;68840;50.272;12.818;2023-05-19T05:10:06;96674;;;10.5;55.6
77469;BME280;68840;50.272;12.818;2023-05-19T05:12:06;96670;;;10.6;54.4
77469;BME280;68840;50.272;12.818;2023-05-19T05:14:05;96668;;;10.7;54.7
77469;BME280;68840;50.272;12.818;2023-05-19T05:16:07;96665;;;10.8;54.2
77469;BME280;68840;50.272;12.818;2023-05-19T05:18:05;96668;;;10.8;54.0
77469;BME280;68840;50.272;12.818;2023-05-19T05:20:06;96670;;;10.8;53.2
77469;BME280;68840;50.272;12.818;2023-05-19T05:22:06;96669;;;10.9;54.2
77469;BME280;68840;50.272;12.818;2023-05-19T05:24:06;96671;;;10.9;54.2
77469;BME280;68840;50.272;12.818;2023-05-19T05:26:15;96670;;;10.9;53.6
77469;BME280;68840;50.272;12.818;2023-05-19T05:28:05;96669;;;10.9;53.6
77469;BME280;68840;50.272;12.818;2023-05-19T05:30:06;96667;;;10.9;53.6
77469;BME280;68840;50.272;12.818;2023-05-19T05:32:06;96665;;;10.9;53.7
77469;BME280;68840;50.272;12.818;2023-05-19T05:34:05;96666;;;10.9;53.1
77469;BME280;68840;50.272;12.818;2023-05-19T05:36:05;96666;;;10.9;52.6
77469;BME280;68840;50.272;12.818;2023-05-19T05:38:05;96666;;;10.9;52.5
77469;BME280;68840;50.272;12.818;2023-05-19T05:40:06;96666;;;10.9;53.0
77469;BME280;68840;50.272;12.818;2023-05-19T05:42:07;96668;;;10.9;52.7
77469;BME280;68840;50.272;12.818;2023-05-19T05:44:05;96667;;;11.0;52.9
77469;BME280;68840;50.272;12.818;2023-05-19T05:46:05;96668;;;11.0;53.1
77469;BME280;68840;50.272;12.818;2023-05-19T05:48:05;96669;;;11.1;52.9
77469;BME280;68840;50.272;12.818;2023-05-19T05:50:08;96667;;;11.2;52.9
77469;BME280;68840;50.272;12.818;2023-05-19T05:52:06;96670;;;11.3;52.8
77469;BME280;68840;50.272;12.818;2023-05-19T05:54:06;96668;;;11.4;52.9
77469;BME280;68840;50.272;12.818;2023-05-19T05:56:06;96669;;;11.5;53.3
77469;BME280;68840;50.272;12.818;2023-05-19T05:58:05;96671;;;11.6;53.7
77469;BME280;68840;50.272;12.818;2023-05-19T06:00:09;96670;;;11.7;52.7
77469;BME280;68840;50.272;12.818;2023-05-19T06:02:06;96670;;;11.8;53.3
77469;BME280;68840;50.272;12.818;2023-05-19T06:04:05;96670;;;12.0;52.9
77469;BME280;68840;50.272;12.818;2023-05-19T06:06:05;96669;;;12.1;51.5
77469;BME280;68840;50.272;12.818;2023-05-19T06:08:05;96670;;;12.2;51.4
77469;BME280;68840;50.272;12.818;2023-05-19T06:10:07;96668;;;12.3;50.8
77469;BME280;68840;50.272;12.818;2023-05-19T06:12:06;96667;;;12.4;51.8
77469;BME280;68840;50.272;12.818;2023-05-19T06:14:05;96668;;;12.5;51.2
77469;BME280;68840;50.272;12.818;2023-05-19T06:16:05;96668;;;12.6;50.1
77469;BME280;68840;50.272;12.818;2023-05-19T06:18:05;96665;;;12.6;51.3
77469;BME280;68840;50.272;12.818;2023-05-19T06:20:07;96665;;;12.7;52.2
77469;BME280;68840;50.272;12.818;2023-05-19T06:22:05;96665;;;12.8;52.2
77469;BME280;68840;50.272;12.818;2023-05-19T06:24:05;96665;;;12.8;51.1
77469;BME280;68840;50.272;12.818;2023-05-19T06:26:05;96666;;;12.9;50.8
77469;BME280;68840;50.272;12.818;2023-05-19T06:28:05;96665;;;12.9;50.0
77469;BME280;68840;50.272;12.818;2023-05-19T06:30:07;96665;;;13.0;49.9
77469;BME280;68840;50.272;12.818;2023-05-19T06:32:05;96666;;;13.0;50.0
77469;BME280;68840;50.272;12.818;2023-05-19T06:34:05;96665;;;13.1;49.6
77469;BME280;68840;50.272;12.818;2023-05-19T06:36:07;96669;;;13.1;49.5
77469;BME280;68840;50.272;12.818;2023-05-19T06:38:05;96673;;;13.1;50.0
77469;BME280;68840;50.272;12.818;2023-05-19T06:40:06;96674;;;13.2;49.7
77469;BME280;68840;50.272;12.818;2023-05-19T06:42:05;96673;;;13.2;51.8
77469;BME280;68840;50.272;12.818;2023-05-19T06:44:06;96674;;;13.3;49.8
77469;BME280;68840;50.272;12.818;2023-05-19T06:46:05;96674;;;13.3;48.8
77469;BME280;68840;50.272;12.818;2023-05-19T06:48:05;96673;;;13.4;50.5
77469;BME280;68840;50.272;12.818;2023-05-19T06:50:05;96676;;;13.5;49.4
77469;BME280;68840;50.272;12.818;2023-05-19T06:52:05;96679;;;13.5;47.5
77469;BME280;68840;50.272;12.818;2023-05-19T06:54:05;96678;;;13.5;48.2
77469;BME280;68840;50.272;12.818;2023-05-19T06:56:05;96676;;;13.5;47.3
77469;BME280;68840;50.272;12.818;2023-05-19T06:58:05;96674;;;13.5;48.8
77469;BME280;68840;50.272;12.818;2023-05-19T07:00:08;96671;;;13.6;49.7
77469;BME280;68840;50.272;12.818;2023-05-19T07:02:05;96672;;;13.6;47.8
77469;BME280;68840;50.272;12.818;2023-05-19T07:04:05;96672;;;13.6;46.8
77469;BME280;68840;50.272;12.818;2023-05-19T07:06:06;96672;;;13.7;47.6
77469;BME280;68840;50.272;12.818;2023-05-19T07:08:07;96669;;;13.7;48.6
77469;BME280;68840;50.272;12.818;2023-05-19T07:10:05;96667;;;13.8;47.3
77469;BME280;68840;50.272;12.818;2023-05-19T07:12:05;96669;;;13.9;47.9
77469;BME280;68840;50.272;12.818;2023-05-19T07:14:05;96666;;;13.9;46.1
77469;BME280;68840;50.272;12.818;2023-05-19T07:16:05;96663;;;13.9;46.3
77469;BME280;68840;50.272;12.818;2023-05-19T07:18:05;96663;;;14.0;49.1
77469;BME280;68840;50.272;12.818;2023-05-19T07:20:06;96664;;;14.0;47.8
77469;BME280;68840;50.272;12.818;2023-05-19T07:22:05;96661;;;14.1;49.9
77469;BME280;68840;50.272;12.818;2023-05-19T07:24:05;96659;;;14.1;49.0
77469;BME280;68840;50.272;12.818;2023-05-19T07:26:05;96660;;;14.2;46.7
77469;BME280;68840;50.272;12.818;2023-05-19T07:28:05;96657;;;14.3;47.7
77469;BME280;68840;50.272;12.818;2023-05-19T07:30:06;96655;;;14.3;49.2
77469;BME280;68840;50.272;12.818;2023-05-19T07:32:05;96656;;;14.4;48.3
77469;BME280;68840;50.272;12.818;2023-05-19T07:34:05;96654;;;14.4;49.2
77469;BME280;68840;50.272;12.818;2023-05-19T07:36:05;96656;;;14.5;48.8
77469;BME280;68840;50.272;12.818;2023-05-19T07:38:06;96657;;;14.6;46.9
77469;BME280;68840;50.272;12.818;2023-05-19T07:40:06;96658;;;14.7;48.2
77469;BME280;68840;50.272;12.818;2023-05-19T07:42:05;96654;;;14.8;48.3
77469;BME280;68840;50.272;12.818;2023-05-19T07:44:06;96654;;;14.9;47.7
77469;BME280;68840;50.272;12.818;2023-05-19T07:46:05;96651;;;15.0;48.8
77469;BME280;68840;50.272;12.818;2023-05-19T07:48:06;96651;;;15.1;46.6
77469;BME280;68840;50.272;12.818;2023-05-19T07:50:06;96649;;;15.2;46.6
77469;BME280;68840;50.272;12.818;2023-05-19T07:52:05;96645;;;15.3;47.4
77469;BME280;68840;50.272;12.818;2023-05-19T07:54:07;96644;;;15.3;46.5
77469;BME280;68840;50.272;12.818;2023-05-19T07:56:05;96643;;;15.3;44.9
77469;BME280;68840;50.272;12.818;2023-05-19T07:58:05;96642;;;15.3;45.5
77469;BME280;68840;50.272;12.818;2023-05-19T08:00:06;96637;;;15.3;44.8
77469;BME280;68840;50.272;12.818;2023-05-19T08:02:06;96633;;;15.3;48.3
77469;BME280;68840;50.272;12.818;2023-05-19T08:04:05;96632;;;15.3;47.5
77469;BME280;68840;50.272;12.818;2023-05-19T08:06:05;96631;;;15.4;48.0
77469;BME280;68840;50.272;12.818;2023-05-19T08:08:05;96627;;;15.6;46.2
77469;BME280;68840;50.272;12.818;2023-05-19T08:10:06;96626;;;15.7;46.4
77469;BME280;68840;50.272;12.818;2023-05-19T08:12:05;96624;;;15.8;47.4
77469;BME280;68840;50.272;12.818;2023-05-19T08:14:05;96628;;;15.9;47.3
77469;BME280;68840;50.272;12.818;2023-05-19T08:16:05;96626;;;16.0;46.8
77469;BME280;68840;50.272;12.818;2023-05-19T08:18:05;96621;;;16.0;46.8
77469;BME280;68840;50.272;12.818;2023-05-19T08:20:07;96623;;;16.0;47.1
77469;BME280;68840;50.272;12.818;2023-05-19T08:22:05;96625;;;16.0;46.0
77469;BME280;68840;50.272;12.818;2023-05-19T08:24:05;96624;;;16.0;44.9
77469;BME280;68840;50.272;12.818;2023-05-19T08:26:05;96622;;;16.0;44.6
77469;BME280;68840;50.272;12.818;2023-05-19T08:28:05;96621;;;16.0;45.0
77469;BME280;68840;50.272;12.818;2023-05-19T08:30:06;96618;;;16.1;44.5
77469;BME280;68840;50.272;12.818;2023-05-19T08:32:06;96620;;;16.2;45.8
77469;BME280;68840;50.272;12.818;2023-05-19T08:34:05;96622;;;16.3;44.6
77469;BME280;68840;50.272;12.818;2023-05-19T08:36:05;96621;;;16.3;45.0
77469;BME280;68840;50.272;12.818;2023-05-19T08:38:05;96622;;;16.3;45.8
77469;BME280;68840;50.272;12.818;2023-05-19T08:40:07;96623;;;16.4;45.8
77469;BME280;68840;50.272;12.818;2023-05-19T08:42:06;96624;;;16.5;44.0
77469;BME280;68840;50.272;12.818;2023-05-19T08:44:05;96627;;;16.5;44.2
77469;BME280;68840;50.272;12.818;2023-05-19T08:46:06;96630;;;16.6;43.9
77469;BME280;68840;50.272;12.818;2023-05-19T08:48:06;96628;;;16.7;45.5
77469;BME280;68840;50.272;12.818;2023-05-19T08:50:07;96632;;;16.7;44.7
77469;BME280;68840;50.272;12.818;2023-05-19T08:52:13;96632;;;16.8;43.5
77469;BME280;68840;50.272;12.818;2023-05-19T08:54:13;96625;;;16.8;44.3
77469;BME280;68840;50.272;12.818;2023-05-19T08:56:10;96627;;;16.9;43.5
77469;BME280;68840;50.272;12.818;2023-05-19T08:58:06;96625;;;16.9;44.2
77469;BME280;68840;50.272;12.818;2023-05-19T09:00:07;96625;;;17.0;45.1
77469;BME280;68840;50.272;12.818;2023-05-19T09:02:05;96627;;;17.1;43.5
77469;BME280;68840;50.272;12.818;2023-05-19T09:04:05;96623;;;17.1;45.4
77469;BME280;68840;50.272;12.818;2023-05-19T09:06:06;96619;;;17.2;44.0
77469;BME280;68840;50.272;12.818;2023-05-19T09:08:05;96613;;;17.2;45.6
77469;BME280;68840;50.272;12.818;2023-05-19T09:10:07;96612;;;17.3;45.7
77469;BME280;68840;50.272;12.818;2023-05-19T09:12:05;96613;;;17.4;44.7
77469;BME280;68840;50.272;12.818;2023-05-19T09:14:05;96611;;;17.5;44.5
77469;BME280;68840;50.272;12.818;2023-05-19T09:16:07;96610;;;17.5;42.4
77469;BME280;68840;50.272;12.818;2023-05-19T09:18:07;96607;;;17.5;45.1
77469;BME280;68840;50.272;12.818;2023-05-19T09:20:09;96602;;;17.5;44.2
77469;BME280;68840;50.272;12.818;2023-05-19T09:22:05;96601;;;17.5;44.1
77469;BME280;68840;50.272;12.818;2023-05-19T09:24:07;96598;;;17.6;43.6
77469;BME280;68840;50.272;12.818;2023-05-19T09:26:06;96602;;;17.6;44.2
77469;BME280;68840;50.272;12.818;2023-05-19T09:28:07;96604;;;17.7;43.4
77469;BME280;68840;50.272;12.818;2023-05-19T09:30:08;96604;;;17.6;40.9
77469;BME280;68840;50.272;12.818;2023-05-19T09:32:05;96599;;;17.6;43.3
77469;BME280;68840;50.272;12.818;2023-05-19T09:34:10;96605;;;17.6;43.0
77469;BME280;68840;50.272;12.818;2023-05-19T09:36:07;96602;;;17.6;41.1
77469;BME280;68840;50.272;12.818;2023-05-19T09:38:05;96598;;;17.6;41.5
77469;BME280;68840;50.272;12.818;2023-05-19T09:40:08;96600;;;17.7;42.4
77469;BME280;68840;50.272;12.818;2023-05-19T09:42:05;96602;;;17.7;41.8
77469;BME280;68840;50.272;12.818;2023-05-19T09:44:06;96601;;;17.7;42.2
77469;BME280;68840;50.272;12.818;2023-05-19T09:46:06;96600;;;17.7;41.9
77469;BME280;68840;50.272;12.818;2023-05-19T09:48:05;96597;;;17.7;42.5
77469;BME280;68840;50.272;12.818;2023-05-19T09:50:08;96593;;;17.8;43.3
77469;BME280;68840;50.272;12.818;2023-05-19T09:52:07;96588;;;17.8;43.4
77469;BME280;68840;50.272;12.818;2023-05-19T09:54:06;96578;;;17.9;43.7
77469;BME280;68840;50.272;12.818;2023-05-19T09:56:07;96580;;;18.0;43.6
77469;BME280;68840;50.272;12.818;2023-05-19T09:58:06;96581;;;18.1;42.6
77469;BME280;68840;50.272;12.818;2023-05-19T10:00:11;96583;;;18.2;41.9
77469;BME280;68840;50.272;12.818;2023-05-19T10:02:11;96579;;;18.3;40.7
77469;BME280;68840;50.272;12.818;2023-05-19T10:04:05;96579;;;18.3;40.1
77469;BME280;68840;50.272;12.818;2023-05-19T10:06:08;96573;;;18.3;41.1
77469;BME280;68840;50.272;12.818;2023-05-19T10:08:09;96571;;;18.3;42.1
77469;BME280;68840;50.272;12.818;2023-05-19T10:10:08;96569;;;18.3;42.1
77469;BME280;68840;50.272;12.818;2023-05-19T10:12:06;96567;;;18.4;43.2
77469;BME280;68840;50.272;12.818;2023-05-19T10:14:07;96569;;;18.5;42.0
77469;BME280;68840;50.272;12.818;2023-05-19T10:16:05;96570;;;18.6;40.6
77469;BME280;68840;50.272;12.818;2023-05-19T10:18:06;96564;;;18.6;40.8
77469;BME280;68840;50.272;12.818;2023-05-19T10:20:08;96557;;;18.6;39.9
77469;BME280;68840;50.272;12.818;2023-05-19T10:22:05;96554;;;18.6;40.2
77469;BME280;68840;50.272;12.818;2023-05-19T10:24:05;96556;;;18.5;41.2
77469;BME280;68840;50.272;12.818;2023-05-19T10:26:06;96556;;;18.4;40.8
77469;BME280;68840;50.272;12.818;2023-05-19T10:28:12;96557;;;18.3;41.3
77469;BME280;68840;50.272;12.818;2023-05-19T10:30:10;96554;;;18.3;40.9
77469;BME280;68840;50.272;12.818;2023-05-19T10:32:10;96551;;;18.2;39.2
77469;BME280;68840;50.272;12.818;2023-05-19T10:34:22;96546;;;18.1;40.6
77469;BME280;68840;50.272;12.818;2023-05-19T10:36:14;96542;;;18.0;39.2
77469;BME280;68840;50.272;12.818;2023-05-19T10:38:11;96541;;;18.0;42.0
77469;BME280;68840;50.272;12.818;2023-05-19T10:40:09;96543;;;18.0;41.4
77469;BME280;68840;50.272;12.818;2023-05-19T10:42:14;96543;;;18.0;41.7
77469;BME280;68840;50.272;12.818;2023-05-19T10:44:11;96541;;;18.1;43.5
77469;BME280;68840;50.272;12.818;2023-05-19T10:46:05;96541;;;18.2;42.6
77469;BME280;68840;50.272;12.818;2023-05-19T10:48:09;96541;;;18.4;44.4
77469;BME280;68840;50.272;12.818;2023-05-19T10:50:06;96536;;;18.5;43.0
77469;BME280;68840;50.272;12.818;2023-05-19T10:52:18;96537;;;18.6;41.2
77469;BME280;68840;50.272;12.818;2023-05-19T10:54:08;96536;;;18.6;40.7
77469;BME280;68840;50.272;12.818;2023-05-19T10:56:09;96534;;;18.7;40.9
77469;BME280;68840;50.272;12.818;2023-05-19T10:58:05;96535;;;18.7;41.5
77469;BME280;68840;50.272;12.818;2023-05-19T11:00:25;96535;;;18.7;41.1
77469;BME280;68840;50.272;12.818;2023-05-19T11:02:07;96538;;;18.8;40.5
77469;BME280;68840;50.272;12.818;2023-05-19T11:04:07;96541;;;18.9;41.5
77469;BME280;68840;50.272;12.818;2023-05-19T11:06:16;96542;;;19.0;41.1
77469;BME280;68840;50.272;12.818;2023-05-19T11:08:06;96539;;;19.1;42.1
77469;BME280;68840;50.272;12.818;2023-05-19T11:10:06;96540;;;19.2;38.1
77469;BME280;68840;50.272;12.818;2023-05-19T11:12:06;96539;;;19.2;40.8